createdAt,value
2018-12-16T00:09:14.408Z,193.57
2018-12-16T00:14:38.563Z,232.97
2018-12-16T00:17:14.240Z,131.73
2018-12-16T00:19:44.729Z,151.03
2018-12-16T00:27:48.524Z,53.67
2018-12-16T00:33:08.947Z,45.07
2018-12-16T00:35:38.540Z,65.07
2018-12-16T00:38:07.897Z,49.60
2018-12-16T00:40:37.090Z,52.90
2018-12-16T00:43:06.067Z,59.00
2018-12-16T00:48:27.153Z,42.33
2018-12-16T00:51:00.782Z,95.50
2018-12-16T00:53:30.148Z,55.93
2018-12-16T00:56:08.502Z,38.60
2018-12-16T00:58:38.072Z,66.20
2018-12-16T01:01:17.347Z,72.00
2018-12-16T01:03:51.214Z,78.70
2018-12-16T01:06:24.310Z,62.03
2018-12-16T01:08:53.572Z,69.40
2018-12-16T01:11:22.268Z,69.47
2018-12-16T01:13:51.164Z,87.00
2018-12-16T01:16:20.243Z,56.43
2018-12-16T01:18:48.862Z,72.60
2018-12-16T01:21:17.487Z,43.17
2018-12-16T01:23:46.250Z,59.67
2018-12-16T01:26:14.885Z,90.17
2018-12-16T01:28:44.683Z,83.57
2018-12-16T01:31:13.417Z,40.07
2018-12-16T01:33:42.032Z,76.80
2018-12-16T01:36:10.599Z,54.20
2018-12-16T01:38:39.195Z,61.33
2018-12-16T01:41:07.874Z,42.37
2018-12-16T01:43:36.366Z,41.80
2018-12-16T01:46:04.979Z,56.97
2018-12-16T01:48:33.472Z,60.77
2018-12-16T01:51:01.954Z,67.00
2018-12-16T01:53:30.570Z,56.43
2018-12-16T01:55:59.064Z,64.30
2018-12-16T01:58:27.568Z,54.30
2018-12-16T02:00:56.106Z,70.67
2018-12-16T02:03:24.819Z,58.00
2018-12-16T02:05:53.395Z,67.60
2018-12-16T02:08:22.083Z,66.10
2018-12-16T02:10:50.569Z,49.07
2018-12-16T02:13:19.066Z,48.57
2018-12-16T02:15:47.716Z,59.37
2018-12-16T02:18:16.211Z,33.40
2018-12-16T02:20:44.700Z,52.00
2018-12-16T02:23:13.315Z,48.17
2018-12-16T02:25:41.794Z,63.33
2018-12-16T02:28:10.309Z,49.43
2018-12-16T02:30:38.963Z,35.17
2018-12-16T02:33:07.535Z,54.63
2018-12-16T02:35:36.062Z,51.20
2018-12-16T02:38:04.607Z,30.43
2018-12-16T02:40:33.131Z,37.80
2018-12-16T02:43:01.737Z,40.00
2018-12-16T02:45:30.626Z,41.27
2018-12-16T02:47:59.094Z,35.33
2018-12-16T02:50:27.568Z,40.23
2018-12-16T02:52:56.149Z,35.37
2018-12-16T02:55:24.610Z,39.80
2018-12-16T02:57:53.072Z,42.23
2018-12-16T03:00:22.132Z,37.27
2018-12-16T03:02:50.614Z,50.23
2018-12-16T03:05:19.116Z,28.90
2018-12-16T03:07:47.881Z,35.43
2018-12-16T03:10:16.523Z,30.43
2018-12-16T03:12:44.998Z,43.53
2018-12-16T03:15:13.944Z,30.63
2018-12-16T03:17:42.424Z,39.20
2018-12-16T03:20:10.903Z,32.53
2018-12-16T03:22:40.002Z,32.57
2018-12-16T03:25:08.531Z,34.00
2018-12-16T03:27:37.045Z,30.77
2018-12-16T03:30:07.076Z,29.10
2018-12-16T03:32:35.628Z,39.70
2018-12-16T03:35:04.123Z,30.60
2018-12-16T03:37:32.979Z,33.60
2018-12-16T03:40:01.450Z,27.97
2018-12-16T03:42:29.983Z,32.90
2018-12-16T03:44:58.803Z,31.53
2018-12-16T03:47:27.292Z,35.40
2018-12-16T03:49:55.744Z,37.50
2018-12-16T03:52:24.802Z,37.27
2018-12-16T03:54:53.324Z,45.20
2018-12-16T03:57:21.796Z,31.50
2018-12-16T03:59:50.889Z,42.83
2018-12-16T04:02:19.539Z,30.27
2018-12-16T04:04:48.038Z,53.30
2018-12-16T04:07:16.587Z,33.27
2018-12-16T04:09:45.059Z,44.27
2018-12-16T04:12:19.539Z,26.60
2018-12-16T04:14:48.027Z,49.90
2018-12-16T04:17:16.520Z,26.70
2018-12-16T04:19:45.612Z,57.60
2018-12-16T04:22:14.212Z,41.07
2018-12-16T04:24:42.682Z,38.47
2018-12-16T04:27:11.222Z,36.60
2018-12-16T04:29:39.683Z,33.20
2018-12-16T04:32:08.359Z,33.07
2018-12-16T04:34:36.891Z,32.17
2018-12-16T04:37:05.350Z,33.57
2018-12-16T04:39:33.918Z,29.17
2018-12-16T04:42:02.583Z,57.77
2018-12-16T04:44:31.049Z,28.60
2018-12-16T04:46:59.704Z,29.30
2018-12-16T04:49:28.235Z,31.60
2018-12-16T04:51:56.907Z,26.97
2018-12-16T04:54:25.383Z,40.37
2018-12-16T04:56:53.951Z,46.93
2018-12-16T04:59:22.426Z,27.20
2018-12-16T05:01:51.033Z,38.10
2018-12-16T05:04:19.635Z,33.43
2018-12-16T05:06:48.136Z,47.53
2018-12-16T05:09:16.627Z,31.07
2018-12-16T05:11:50.579Z,39.77
2018-12-16T05:14:19.059Z,25.73
2018-12-16T05:16:47.555Z,34.27
2018-12-16T05:19:16.180Z,29.83
2018-12-16T05:21:44.834Z,46.33
2018-12-16T05:24:13.302Z,35.50
2018-12-16T05:26:42.270Z,49.97
2018-12-16T05:29:10.748Z,30.83
2018-12-16T05:31:39.262Z,35.10
2018-12-16T05:34:07.908Z,35.00
2018-12-16T05:36:36.399Z,26.90
2018-12-16T05:39:05.851Z,30.13
2018-12-16T05:41:39.686Z,27.70
2018-12-16T05:44:08.174Z,31.33
2018-12-16T05:46:36.647Z,30.67
2018-12-16T05:49:05.329Z,30.10
2018-12-16T05:51:33.846Z,28.37
2018-12-16T05:54:02.319Z,37.90
2018-12-16T05:56:30.918Z,29.40
2018-12-16T05:58:59.394Z,28.57
2018-12-16T06:01:27.882Z,34.17
2018-12-16T06:03:56.486Z,34.13
2018-12-16T06:06:24.998Z,34.17
2018-12-16T06:08:53.450Z,35.07
2018-12-16T06:11:22.929Z,42.13
2018-12-16T06:13:51.402Z,32.57
2018-12-16T06:16:19.854Z,31.10
2018-12-16T06:18:48.806Z,47.17
2018-12-16T06:21:17.667Z,31.67
2018-12-16T06:23:46.135Z,38.00
2018-12-16T06:26:14.762Z,30.50
2018-12-16T06:28:43.246Z,57.93
2018-12-16T06:31:12.062Z,41.63
2018-12-16T06:33:40.667Z,38.10
2018-12-16T06:36:09.136Z,30.70
2018-12-16T06:38:54.006Z,32.27
2018-12-16T06:41:23.122Z,34.00
2018-12-16T06:43:51.688Z,73.03
2018-12-16T06:46:20.327Z,41.20
2018-12-16T06:48:48.847Z,46.57
2018-12-16T06:51:17.655Z,29.17
2018-12-16T06:53:46.367Z,40.73
2018-12-16T06:56:14.838Z,26.90
2018-12-16T06:58:43.310Z,54.70
2018-12-16T07:01:12.063Z,36.57
2018-12-16T07:03:40.526Z,38.07
2018-12-16T07:06:09.022Z,31.93
2018-12-16T07:08:38.155Z,30.97
2018-12-16T07:11:06.667Z,29.47
2018-12-16T07:13:35.271Z,36.23
2018-12-16T07:16:03.854Z,25.50
2018-12-16T07:18:32.379Z,29.23
2018-12-16T07:21:00.914Z,38.83
2018-12-16T07:23:29.865Z,38.67
2018-12-16T07:25:58.356Z,27.53
2018-12-16T07:28:26.861Z,39.03
2018-12-16T07:30:55.515Z,48.83
2018-12-16T07:33:24.003Z,31.60
2018-12-16T07:35:52.617Z,39.53
2018-12-16T07:38:21.240Z,31.17
2018-12-16T07:40:51.409Z,40.73
2018-12-16T07:43:20.015Z,28.37
2018-12-16T07:45:48.607Z,37.87
2018-12-16T07:48:17.715Z,44.07
2018-12-16T07:50:46.289Z,46.93
2018-12-16T07:53:14.986Z,32.43
2018-12-16T07:55:43.455Z,52.00
2018-12-16T07:58:12.091Z,38.00
2018-12-16T08:00:40.818Z,45.97
2018-12-16T08:03:09.290Z,34.07
2018-12-16T08:05:37.803Z,46.57
2018-12-16T08:08:06.514Z,48.40
2018-12-16T08:10:35.006Z,44.47
2018-12-16T08:13:03.490Z,45.47
2018-12-16T08:15:32.039Z,39.63
2018-12-16T08:18:00.515Z,35.87
2018-12-16T08:20:29.005Z,47.93
2018-12-16T08:22:57.531Z,35.77
2018-12-16T08:25:26.011Z,48.40
2018-12-16T08:27:54.487Z,50.07
2018-12-16T08:30:23.190Z,46.23
2018-12-16T08:32:51.670Z,51.37
2018-12-16T08:35:20.138Z,38.30
2018-12-16T08:37:49.054Z,51.53
2018-12-16T08:40:17.539Z,40.57
2018-12-16T08:42:46.036Z,43.70
2018-12-16T08:45:14.659Z,19.37
2018-12-16T08:47:43.147Z,45.60
2018-12-16T08:50:11.614Z,37.93
2018-12-16T08:52:40.254Z,49.57
2018-12-16T08:55:09.256Z,33.50
2018-12-16T08:57:37.744Z,39.10
2018-12-16T09:00:06.362Z,35.97
2018-12-16T09:02:34.854Z,37.17
2018-12-16T09:05:03.407Z,32.87
2018-12-16T09:07:37.267Z,49.23
2018-12-16T09:10:02.554Z,37.60
2018-12-16T09:12:31.051Z,52.50
2018-12-16T09:14:59.685Z,32.27
2018-12-16T09:17:28.167Z,33.07
2018-12-16T09:19:56.722Z,39.47
2018-12-16T09:22:26.639Z,15.57
2018-12-16T09:24:58.861Z,34.27
2018-12-16T09:27:27.795Z,21.60
2018-12-16T09:29:57.077Z,49.43
2018-12-16T09:32:25.539Z,75.03
2018-12-16T09:34:54.454Z,55.60
2018-12-16T09:37:23.023Z,34.83
2018-12-16T09:39:51.562Z,35.97
2018-12-16T09:42:20.102Z,42.13
2018-12-16T09:44:48.605Z,57.97
2018-12-16T09:47:17.090Z,33.43
2018-12-16T09:49:45.690Z,48.73
2018-12-16T09:52:14.159Z,50.20
2018-12-16T09:54:44.432Z,114.73
2018-12-16T09:57:13.911Z,76.23
2018-12-16T09:59:42.461Z,65.87
2018-12-16T10:02:10.930Z,70.73
2018-12-16T10:04:39.603Z,57.57
2018-12-16T10:07:08.110Z,59.77
2018-12-16T10:09:36.583Z,42.77
2018-12-16T10:12:05.251Z,58.10
2018-12-16T10:14:33.748Z,43.80
2018-12-16T10:17:02.210Z,48.27
2018-12-16T10:19:31.163Z,40.17
2018-12-16T10:21:59.791Z,33.70
2018-12-16T10:24:28.251Z,50.00
2018-12-16T10:26:56.863Z,47.77
2018-12-16T10:29:25.351Z,50.77
2018-12-16T10:31:53.827Z,59.13
2018-12-16T10:34:22.339Z,57.73
2018-12-16T10:36:50.810Z,55.77
2018-12-16T10:39:19.308Z,33.73
2018-12-16T10:41:48.411Z,48.50
2018-12-16T10:44:16.881Z,34.20
2018-12-16T10:46:45.383Z,70.33
2018-12-16T10:49:13.999Z,52.37
2018-12-16T10:51:42.763Z,45.63
2018-12-16T10:54:11.227Z,32.23
2018-12-16T10:56:39.752Z,43.77
2018-12-16T10:59:08.334Z,39.27
2018-12-16T11:01:36.846Z,44.40
2018-12-16T11:04:06.271Z,43.20
2018-12-16T11:06:34.862Z,35.30
2018-12-16T11:09:03.423Z,36.47
2018-12-16T11:11:32.069Z,37.87
2018-12-16T11:14:00.540Z,33.87
2018-12-16T11:16:29.005Z,34.33
2018-12-16T11:18:57.547Z,43.30
2018-12-16T11:21:31.307Z,37.80
2018-12-16T11:24:00.357Z,30.43
2018-12-16T11:26:28.832Z,47.33
2018-12-16T11:28:57.315Z,35.63
2018-12-16T11:31:25.938Z,36.67
2018-12-16T11:33:54.418Z,45.80
2018-12-16T11:36:22.906Z,41.70
2018-12-16T11:38:51.868Z,56.63
2018-12-16T11:41:20.339Z,32.30
2018-12-16T11:43:48.794Z,50.23
2018-12-16T11:46:17.419Z,37.30
2018-12-16T11:48:45.894Z,49.50
2018-12-16T11:51:14.367Z,31.60
2018-12-16T11:53:42.917Z,41.30
2018-12-16T11:56:11.408Z,31.70
2018-12-16T11:58:39.887Z,43.83
2018-12-16T12:01:08.634Z,42.83
2018-12-16T12:03:37.103Z,40.37
2018-12-16T12:06:05.591Z,36.83
2018-12-16T12:08:34.258Z,33.33
2018-12-16T12:11:02.900Z,29.73
2018-12-16T12:13:31.411Z,32.23
2018-12-16T12:16:00.019Z,32.77
2018-12-16T12:18:28.490Z,38.63
2018-12-16T12:21:06.596Z,32.20
2018-12-16T12:23:35.139Z,34.20
2018-12-16T12:26:03.686Z,32.93
2018-12-16T12:28:32.542Z,40.27
2018-12-16T12:31:01.147Z,32.43
2018-12-16T12:33:29.623Z,36.03
2018-12-16T12:35:58.232Z,37.73
2018-12-16T12:38:26.702Z,39.67
2018-12-16T12:40:55.188Z,40.00
2018-12-16T12:43:25.028Z,29.33
2018-12-16T12:45:53.626Z,34.57
2018-12-16T12:48:22.215Z,30.40
2018-12-16T12:50:50.756Z,42.30
2018-12-16T12:53:19.239Z,36.00
2018-12-16T12:55:47.760Z,41.97
2018-12-16T12:58:16.615Z,45.73
2018-12-16T13:00:45.099Z,48.33
2018-12-16T13:03:13.813Z,31.80
2018-12-16T13:05:42.435Z,36.97
2018-12-16T13:08:10.922Z,45.27
2018-12-16T13:10:39.387Z,38.30
2018-12-16T13:13:08.595Z,35.53
2018-12-16T13:15:37.095Z,33.83
2018-12-16T13:18:05.626Z,36.53
2018-12-16T13:20:34.559Z,38.47
2018-12-16T13:23:03.026Z,34.50
2018-12-16T13:25:43.150Z,112.87
2018-12-16T13:28:11.819Z,29.63
2018-12-16T13:30:40.484Z,24.17
2018-12-16T13:33:08.974Z,55.57
2018-12-16T13:35:37.943Z,38.47
2018-12-16T13:38:06.403Z,30.73
2018-12-16T13:40:34.891Z,38.63
2018-12-16T13:43:03.436Z,39.43
2018-12-16T13:45:31.923Z,35.53
2018-12-16T13:48:00.395Z,41.47
2018-12-16T13:50:29.002Z,38.80
2018-12-16T13:52:57.511Z,41.37
2018-12-16T13:55:25.986Z,27.40
2018-12-16T13:57:54.967Z,28.77
2018-12-16T14:00:23.475Z,34.80
2018-12-16T14:02:51.958Z,35.73
2018-12-16T14:05:20.647Z,37.63
2018-12-16T14:07:49.111Z,41.87
2018-12-16T14:10:17.583Z,30.40
2018-12-16T14:12:46.172Z,85.43
2018-12-16T14:15:14.633Z,28.67
2018-12-16T14:17:43.214Z,38.40
2018-12-16T14:20:11.747Z,30.53
2018-12-16T14:22:40.215Z,30.13
2018-12-16T14:25:08.694Z,37.47
2018-12-16T14:27:37.566Z,35.13
2018-12-16T14:30:08.154Z,47.37
2018-12-16T14:32:36.630Z,33.33
2018-12-16T14:35:05.562Z,44.47
2018-12-16T14:37:34.024Z,26.37
2018-12-16T14:40:02.509Z,39.93
2018-12-16T14:42:31.139Z,29.97
2018-12-16T14:44:59.610Z,38.07
2018-12-16T14:47:28.079Z,29.33
2018-12-16T14:49:57.863Z,24.73
2018-12-16T14:52:26.323Z,50.33
2018-12-16T14:54:54.784Z,27.90
2018-12-16T14:57:23.386Z,38.93
2018-12-16T14:59:51.863Z,30.27
2018-12-16T15:02:20.379Z,44.50
2018-12-16T15:04:49.743Z,33.80
2018-12-16T15:07:18.308Z,41.67
2018-12-16T15:09:46.787Z,34.10
2018-12-16T15:12:15.395Z,44.60
2018-12-16T15:14:43.877Z,32.23
2018-12-16T15:17:12.356Z,44.73
2018-12-16T15:19:40.877Z,42.43
2018-12-16T15:22:09.353Z,43.73
2018-12-16T15:24:37.823Z,48.70
2018-12-16T15:27:06.414Z,36.07
2018-12-16T15:29:34.888Z,32.20
2018-12-16T15:32:03.375Z,55.63
2018-12-16T15:34:32.236Z,35.07
2018-12-16T15:37:00.794Z,32.27
2018-12-16T15:39:29.320Z,26.87
2018-12-16T15:41:57.968Z,40.50
2018-12-16T15:44:26.434Z,26.10
2018-12-16T15:46:54.904Z,30.57
2018-12-16T15:49:23.499Z,31.90
2018-12-16T15:51:52.043Z,24.80
2018-12-16T15:54:20.521Z,29.10
2018-12-16T15:56:49.058Z,34.63
2018-12-16T15:59:17.546Z,36.67
2018-12-16T16:01:46.003Z,27.03
2018-12-16T16:04:14.543Z,41.33
2018-12-16T16:06:43.015Z,27.33
2018-12-16T16:09:11.571Z,43.07
2018-12-16T16:11:40.479Z,24.63
2018-12-16T16:14:08.971Z,43.90
2018-12-16T16:16:37.487Z,43.63
2018-12-16T16:19:06.026Z,34.87
2018-12-16T16:21:34.559Z,23.17
2018-12-16T16:24:03.024Z,40.30
2018-12-16T16:26:31.632Z,25.70
2018-12-16T16:29:00.110Z,40.67
2018-12-16T16:31:28.671Z,28.90
2018-12-16T16:33:57.754Z,30.63
2018-12-16T16:36:26.217Z,26.90
2018-12-16T16:38:54.902Z,35.03
2018-12-16T16:41:23.782Z,22.53
2018-12-16T16:43:52.326Z,29.33
2018-12-16T16:46:20.819Z,26.40
2018-12-16T16:48:49.432Z,26.40
2018-12-16T16:51:17.936Z,31.30
2018-12-16T16:53:46.423Z,24.80
2018-12-16T16:56:15.027Z,28.13
2018-12-16T16:58:43.494Z,31.27
2018-12-16T17:01:11.990Z,46.10
2018-12-16T17:03:40.510Z,22.03
2018-12-16T17:06:08.992Z,43.00
2018-12-16T17:08:37.487Z,33.37
2018-12-16T17:11:11.523Z,41.90
2018-12-16T17:13:40.002Z,27.33
2018-12-16T17:16:08.703Z,27.23
2018-12-16T17:18:37.895Z,33.03
2018-12-16T17:21:06.746Z,35.30
2018-12-16T17:23:35.211Z,33.40
2018-12-16T17:26:03.815Z,30.00
2018-12-16T17:28:32.283Z,29.30
2018-12-16T17:31:00.827Z,41.73
2018-12-16T17:33:29.493Z,32.40
2018-12-16T17:35:57.968Z,50.67
2018-12-16T17:38:26.522Z,34.23
2018-12-16T17:41:00.230Z,28.20
2018-12-16T17:43:28.697Z,29.60
2018-12-16T17:45:57.168Z,35.40
2018-12-16T17:48:26.018Z,22.23
2018-12-16T17:50:54.502Z,23.73
2018-12-16T17:53:22.995Z,29.60
2018-12-16T17:55:51.510Z,34.93
2018-12-16T17:58:19.994Z,24.37
2018-12-16T18:00:48.611Z,37.93
2018-12-16T18:03:17.222Z,26.83
2018-12-16T18:05:45.731Z,24.80
2018-12-16T18:08:14.210Z,27.47
2018-12-16T18:10:47.846Z,29.30
2018-12-16T18:13:16.403Z,29.03
2018-12-16T18:15:44.886Z,24.17
2018-12-16T18:18:13.419Z,32.27
2018-12-16T18:20:41.960Z,29.13
2018-12-16T18:23:10.494Z,37.20
2018-12-16T18:25:39.229Z,28.43
2018-12-16T18:28:07.711Z,35.33
2018-12-16T18:30:36.219Z,28.10
2018-12-16T18:33:05.161Z,31.20
2018-12-16T18:35:33.627Z,25.10
2018-12-16T18:38:03.087Z,48.40
2018-12-16T18:40:31.690Z,24.00
2018-12-16T18:43:00.164Z,42.70
2018-12-16T18:45:28.631Z,35.23
2018-12-16T18:47:57.235Z,37.73
2018-12-16T18:50:25.694Z,33.00
2018-12-16T18:52:54.155Z,24.33
2018-12-16T18:55:22.786Z,30.93
2018-12-16T18:57:51.302Z,28.70
2018-12-16T19:00:19.766Z,32.47
2018-12-16T19:02:48.361Z,26.17
2018-12-16T19:05:17.855Z,25.17
2018-12-16T19:07:46.330Z,30.87
2018-12-16T19:10:15.419Z,28.10
2018-12-16T19:12:43.891Z,24.97
2018-12-16T19:15:13.181Z,32.33
2018-12-16T19:17:41.915Z,35.17
2018-12-16T19:20:10.378Z,27.70
2018-12-16T19:22:39.139Z,41.00
2018-12-16T19:25:07.618Z,40.97
2018-12-16T19:27:36.154Z,32.43
2018-12-16T19:30:05.014Z,33.23
2018-12-16T19:32:38.814Z,27.40
2018-12-16T19:35:08.522Z,34.60
2018-12-16T19:37:37.000Z,29.80
2018-12-16T19:40:05.630Z,23.50
2018-12-16T19:42:34.168Z,32.67
2018-12-16T19:45:02.640Z,26.07
2018-12-16T19:47:31.119Z,25.33
2018-12-16T19:49:59.727Z,26.07
2018-12-16T19:52:28.212Z,37.97
2018-12-16T19:54:57.387Z,34.63
2018-12-16T19:57:26.286Z,26.00
2018-12-16T19:59:54.838Z,43.83
2018-12-16T20:02:23.390Z,29.77
2018-12-16T20:04:57.047Z,26.13
2018-12-16T20:07:25.514Z,28.13
2018-12-16T20:09:54.006Z,29.80
2018-12-16T20:12:22.543Z,27.00
2018-12-16T20:14:50.998Z,41.83
2018-12-16T20:17:19.579Z,23.83
2018-12-16T20:19:48.744Z,46.10
2018-12-16T20:22:17.210Z,19.37
2018-12-16T20:24:45.690Z,39.60
2018-12-16T20:27:14.206Z,24.37
2018-12-16T20:29:42.747Z,35.20
2018-12-16T20:32:11.325Z,21.00
2018-12-16T20:34:39.811Z,23.50
2018-12-16T20:37:08.287Z,26.43
2018-12-16T20:39:36.951Z,21.90
2018-12-16T20:42:05.414Z,42.93
2018-12-16T20:44:33.911Z,24.27
2018-12-16T20:47:02.511Z,24.77
2018-12-16T20:49:30.986Z,25.10
2018-12-16T20:51:59.447Z,26.37
2018-12-16T20:54:27.985Z,24.80
2018-12-16T20:56:56.466Z,27.97
2018-12-16T20:59:24.934Z,23.60
2018-12-16T21:01:53.534Z,37.83
2018-12-16T21:04:22.019Z,36.50
2018-12-16T21:06:50.496Z,34.97
2018-12-16T21:09:19.104Z,38.47
2018-12-16T21:11:52.923Z,27.63
2018-12-16T21:14:26.900Z,29.03
2018-12-16T21:17:00.451Z,30.93
2018-12-16T21:19:29.499Z,27.47
2018-12-16T21:21:58.093Z,33.53
2018-12-16T21:24:26.547Z,26.87
2018-12-16T21:26:55.150Z,37.00
2018-12-16T21:29:23.642Z,26.83
2018-12-16T21:31:52.247Z,51.43
2018-12-16T21:34:20.855Z,22.20
2018-12-16T21:36:49.366Z,41.70
2018-12-16T21:39:17.851Z,24.80
2018-12-16T21:41:46.483Z,38.20
2018-12-16T21:44:14.955Z,22.70
2018-12-16T21:46:43.441Z,37.53
2018-12-16T21:49:12.098Z,26.10
2018-12-16T21:51:40.778Z,30.33
2018-12-16T21:54:09.245Z,41.50
2018-12-16T21:56:37.868Z,20.67
2018-12-16T21:59:06.343Z,26.87
2018-12-16T22:01:34.831Z,31.77
2018-12-16T22:04:03.987Z,55.50
2018-12-16T22:06:32.459Z,36.93
2018-12-16T22:09:00.938Z,33.83
2018-12-16T22:11:30.011Z,35.70
2018-12-16T22:13:58.475Z,48.63
2018-12-16T22:16:26.927Z,32.53
2018-12-16T22:18:55.540Z,48.37
2018-12-16T22:21:24.151Z,43.27
2018-12-16T22:23:52.646Z,41.33
2018-12-16T22:26:21.264Z,52.70
2018-12-16T22:28:49.746Z,58.90
2018-12-16T22:31:18.226Z,55.30
2018-12-16T22:33:47.070Z,60.13
2018-12-16T22:36:15.539Z,82.40
2018-12-16T22:38:44.047Z,63.73
2018-12-16T22:41:12.574Z,48.23
2018-12-16T22:43:41.323Z,46.47
2018-12-16T22:46:10.024Z,53.50
2018-12-16T22:48:38.559Z,50.93
2018-12-16T22:51:07.072Z,54.43
2018-12-16T22:53:35.535Z,43.87
2018-12-16T22:56:04.219Z,44.30
2018-12-16T22:58:32.697Z,46.30
2018-12-16T23:01:06.313Z,40.50
2018-12-16T23:03:34.901Z,44.63
2018-12-16T23:06:03.400Z,73.17
2018-12-16T23:08:32.032Z,33.90
2018-12-16T23:11:00.517Z,44.40
2018-12-16T23:13:28.995Z,35.47
2018-12-16T23:15:57.515Z,39.53
2018-12-16T23:18:25.983Z,23.47
2018-12-16T23:20:54.451Z,34.17
2018-12-16T23:23:23.489Z,37.37
2018-12-16T23:25:51.959Z,38.53
2018-12-16T23:28:20.559Z,32.07
2018-12-16T23:30:49.182Z,40.50
2018-12-16T23:33:17.696Z,28.57
2018-12-16T23:35:46.203Z,54.47
2018-12-16T23:38:14.743Z,24.47
2018-12-16T23:40:43.218Z,43.80
2018-12-16T23:43:11.699Z,28.27
2018-12-16T23:45:40.227Z,29.80
2018-12-16T23:48:08.738Z,28.07
2018-12-16T23:50:37.318Z,29.73
2018-12-16T23:53:06.169Z,26.33
2018-12-16T23:55:34.646Z,21.80
2018-12-16T23:58:03.120Z,33.87
